createdAt,value
2022-09-24T00:02:55.252Z,6.33
2022-09-24T00:06:03.158Z,5.17
2022-09-24T00:09:06.505Z,6.70
2022-09-24T00:12:13.194Z,6.23
2022-09-24T00:15:16.410Z,6.43
2022-09-24T00:18:21.869Z,6.90
2022-09-24T00:21:26.551Z,5.40
2022-09-24T00:24:46.955Z,7.50
2022-09-24T00:27:51.703Z,6.23
2022-09-24T00:30:57.414Z,6.13
2022-09-24T00:34:00.966Z,7.27
2022-09-24T00:37:04.159Z,5.93
2022-09-24T00:40:08.500Z,7.40
2022-09-24T00:43:26.605Z,5.37
2022-09-24T00:46:33.652Z,7.87
2022-09-24T00:49:37.064Z,5.70
2022-09-24T00:52:44.651Z,5.90
2022-09-24T00:55:51.304Z,5.87
2022-09-24T00:58:58.051Z,5.20
2022-09-24T01:02:02.069Z,6.67
2022-09-24T01:05:06.066Z,5.03
2022-09-24T01:08:13.205Z,5.80
2022-09-24T01:11:31.714Z,6.23
2022-09-24T01:14:59.512Z,8.37
2022-09-24T01:18:08.050Z,6.57
2022-09-24T01:21:25.287Z,5.37
2022-09-24T01:24:45.785Z,7.07
2022-09-24T01:28:05.797Z,6.30
2022-09-24T01:31:16.052Z,5.70
2022-09-24T01:34:26.990Z,6.30
2022-09-24T01:37:33.777Z,6.90
2022-09-24T01:40:39.637Z,7.07
2022-09-24T01:43:43.339Z,6.20
2022-09-24T01:46:47.722Z,5.63
2022-09-24T01:49:53.712Z,6.73
2022-09-24T01:53:01.247Z,7.23
2022-09-24T01:56:09.356Z,6.30
2022-09-24T01:59:17.303Z,6.57
2022-09-24T02:02:27.633Z,7.33
2022-09-24T02:05:35.404Z,7.07
2022-09-24T02:08:40.570Z,7.70
2022-09-24T02:11:54.943Z,6.33
2022-09-24T02:15:02.931Z,5.73
2022-09-24T02:18:14.614Z,10.60
2022-09-24T02:21:21.064Z,5.70
2022-09-24T02:24:31.377Z,7.07
2022-09-24T02:27:35.114Z,7.27
2022-09-24T02:30:42.365Z,9.93
2022-09-24T02:34:08.677Z,6.87
2022-09-24T02:37:14.978Z,8.10
2022-09-24T02:40:18.071Z,9.57
2022-09-24T02:43:21.058Z,9.43
2022-09-24T02:46:24.261Z,8.50
2022-09-24T02:49:28.983Z,6.93
2022-09-24T02:52:32.024Z,6.80
2022-09-24T02:55:34.979Z,7.47
2022-09-24T02:58:38.295Z,8.73
2022-09-24T03:01:41.613Z,7.63
2022-09-24T03:04:47.105Z,9.40
2022-09-24T03:07:50.208Z,9.00
2022-09-24T03:10:55.949Z,8.53
2022-09-24T03:13:59.150Z,8.90
2022-09-24T03:17:02.241Z,9.13
2022-09-24T03:20:07.933Z,8.60
2022-09-24T03:23:10.932Z,9.00
2022-09-24T03:26:14.479Z,9.33
2022-09-24T03:29:17.451Z,10.33
2022-09-24T03:32:19.426Z,9.23
2022-09-24T03:35:23.776Z,10.43
2022-09-24T03:38:27.078Z,10.30
2022-09-24T03:41:30.142Z,10.77
2022-09-24T03:44:33.118Z,12.90
2022-09-24T03:47:36.364Z,11.43
2022-09-24T03:50:40.754Z,10.50
2022-09-24T03:53:43.883Z,9.93
2022-09-24T03:56:46.851Z,10.23
2022-09-24T03:59:49.828Z,10.27
2022-09-24T04:02:52.803Z,11.50
2022-09-24T04:05:57.138Z,11.53
2022-09-24T04:09:00.362Z,12.73
2022-09-24T04:12:03.515Z,10.60
2022-09-24T04:15:07.243Z,11.40
2022-09-24T04:18:10.302Z,11.73
2022-09-24T04:21:14.641Z,11.77
2022-09-24T04:24:17.784Z,11.77
2022-09-24T04:27:21.482Z,11.33
2022-09-24T04:30:26.166Z,11.90
2022-09-24T04:33:29.217Z,13.03
2022-09-24T04:36:33.512Z,11.63
2022-09-24T04:39:36.486Z,13.07
2022-09-24T04:42:40.118Z,14.63
2022-09-24T04:45:44.117Z,11.60
2022-09-24T04:48:47.101Z,11.37
2022-09-24T04:51:51.441Z,12.37
2022-09-24T04:54:54.539Z,13.97
2022-09-24T04:57:58.041Z,13.27
2022-09-24T05:01:03.890Z,14.13
2022-09-24T05:04:06.850Z,14.83
2022-09-24T05:07:11.721Z,14.87
2022-09-24T05:10:14.677Z,14.67
2022-09-24T05:13:17.635Z,15.60
2022-09-24T05:16:20.618Z,13.43
2022-09-24T05:19:23.684Z,15.20
2022-09-24T05:22:28.342Z,13.07
2022-09-24T05:25:31.294Z,12.23
2022-09-24T05:28:33.349Z,14.17
2022-09-24T05:31:36.732Z,13.63
2022-09-24T05:34:41.315Z,12.17
2022-09-24T05:37:45.919Z,12.57
2022-09-24T05:40:48.958Z,12.63
2022-09-24T05:43:52.119Z,11.40
2022-09-24T05:46:55.114Z,11.57
2022-09-24T05:49:58.101Z,11.33
2022-09-24T05:53:02.608Z,11.90
2022-09-24T05:56:06.217Z,11.80
2022-09-24T05:59:09.318Z,12.30
2022-09-24T06:02:12.433Z,10.30
2022-09-24T06:05:15.553Z,10.70
2022-09-24T06:08:21.624Z,10.67
2022-09-24T06:11:25.576Z,11.07
2022-09-24T06:14:28.537Z,10.53
2022-09-24T06:17:31.845Z,10.47
2022-09-24T06:20:34.876Z,11.73
2022-09-24T06:23:39.877Z,12.03
2022-09-24T06:26:42.841Z,12.73
2022-09-24T06:29:45.813Z,13.53
2022-09-24T06:32:48.931Z,16.07
2022-09-24T06:35:51.898Z,17.20
2022-09-24T06:38:58.532Z,14.67
2022-09-24T06:42:01.498Z,17.70
2022-09-24T06:45:04.715Z,16.03
2022-09-24T06:48:07.958Z,16.90
2022-09-24T06:51:10.911Z,18.30
2022-09-24T06:54:15.748Z,17.73
2022-09-24T06:57:18.696Z,17.23
2022-09-24T07:00:21.669Z,15.40
2022-09-24T07:03:24.629Z,15.57
2022-09-24T07:06:47.571Z,13.00
2022-09-24T07:09:51.918Z,13.60
2022-09-24T07:12:55.443Z,14.03
2022-09-24T07:15:58.476Z,13.47
2022-09-24T07:19:01.497Z,13.67
2022-09-24T07:22:04.509Z,14.87
2022-09-24T07:25:11.244Z,20.13
2022-09-24T07:28:16.003Z,15.27
2022-09-24T07:31:19.050Z,16.53
2022-09-24T07:34:22.162Z,16.47
2022-09-24T07:37:25.330Z,18.27
2022-09-24T07:40:30.638Z,16.83
2022-09-24T07:43:33.706Z,17.87
2022-09-24T07:46:36.855Z,17.60
2022-09-24T07:49:39.837Z,18.43
2022-09-24T07:52:42.787Z,16.23
2022-09-24T07:55:47.152Z,18.27
2022-09-24T07:58:50.586Z,18.70
2022-09-24T08:01:53.942Z,17.53
2022-09-24T08:04:56.968Z,16.97
2022-09-24T08:08:00.619Z,19.33
2022-09-24T08:11:06.014Z,18.27
2022-09-24T08:14:09.005Z,20.13
2022-09-24T08:17:12.010Z,19.37
2022-09-24T08:20:14.956Z,21.57
2022-09-24T08:23:18.128Z,20.40
2022-09-24T08:26:22.422Z,20.30
2022-09-24T08:29:25.355Z,20.43
2022-09-24T08:32:29.164Z,20.93
2022-09-24T08:35:32.507Z,19.60
2022-09-24T08:38:35.786Z,19.83
2022-09-24T08:41:53.704Z,19.80
2022-09-24T08:45:16.254Z,21.03
2022-09-24T08:48:23.534Z,21.57
2022-09-24T08:51:32.767Z,23.23
2022-09-24T08:54:38.912Z,21.90
2022-09-24T08:57:50.567Z,22.07
2022-09-24T09:01:00.209Z,20.93
2022-09-24T09:04:23.736Z,22.20
2022-09-24T09:07:30.319Z,22.80
2022-09-24T09:10:38.546Z,21.43
2022-09-24T09:13:47.256Z,22.00
2022-09-24T09:16:54.504Z,20.43
2022-09-24T09:19:59.146Z,22.87
2022-09-24T09:23:07.004Z,21.17
2022-09-24T09:26:12.580Z,25.10
2022-09-24T09:29:17.903Z,20.07
2022-09-24T09:32:36.192Z,23.67
2022-09-24T09:35:46.031Z,21.17
2022-09-24T09:38:58.839Z,21.80
2022-09-24T09:42:09.762Z,23.20
2022-09-24T09:45:28.071Z,25.27
2022-09-24T09:48:44.418Z,23.17
2022-09-24T09:51:49.263Z,24.80
2022-09-24T09:54:52.318Z,25.53
2022-09-24T09:58:11.311Z,24.37
2022-09-24T10:01:18.547Z,26.23
2022-09-24T10:04:29.741Z,24.80
2022-09-24T10:07:33.465Z,25.10
2022-09-24T10:10:36.416Z,28.77
2022-09-24T10:13:39.402Z,27.83
2022-09-24T10:16:46.646Z,25.87
2022-09-24T10:19:50.751Z,24.00
2022-09-24T10:22:56.636Z,25.83
2022-09-24T10:26:01.979Z,24.53
2022-09-24T10:29:22.905Z,27.03
2022-09-24T10:32:30.220Z,24.37
2022-09-24T10:35:35.790Z,29.10
2022-09-24T10:38:38.776Z,31.13
2022-09-24T10:41:48.109Z,29.17
2022-09-24T10:44:52.902Z,25.53
2022-09-24T10:48:08.752Z,27.47
2022-09-24T10:51:28.747Z,27.73
2022-09-24T10:54:48.072Z,24.90
2022-09-24T10:58:02.969Z,26.70
2022-09-24T11:01:16.421Z,26.37
2022-09-24T11:04:42.367Z,24.73
2022-09-24T11:08:00.299Z,26.90
2022-09-24T11:11:15.942Z,25.63
2022-09-24T11:14:32.129Z,28.17
2022-09-24T11:17:39.355Z,31.23
2022-09-24T11:20:49.884Z,27.57
2022-09-24T11:24:05.305Z,30.33
2022-09-24T11:27:34.454Z,30.00
2022-09-24T11:30:47.446Z,28.30
2022-09-24T11:34:08.625Z,28.27
2022-09-24T11:37:29.075Z,31.37
2022-09-24T11:40:53.121Z,29.63
2022-09-24T11:44:11.296Z,27.13
2022-09-24T11:47:27.090Z,30.53
2022-09-24T11:50:45.084Z,29.23
2022-09-24T11:53:58.211Z,27.33
2022-09-24T11:57:05.059Z,28.67
2022-09-24T12:00:15.322Z,29.57
2022-09-24T12:03:26.269Z,28.17
2022-09-24T12:06:34.330Z,27.27
2022-09-24T12:09:44.104Z,29.70
2022-09-24T12:12:51.062Z,27.53
2022-09-24T12:15:57.535Z,28.70
2022-09-24T12:19:06.869Z,24.90
2022-09-24T12:22:11.550Z,27.90
2022-09-24T12:25:16.510Z,25.37
2022-09-24T12:28:35.397Z,24.97
2022-09-24T12:32:06.885Z,26.57
2022-09-24T12:35:17.342Z,26.97
2022-09-24T12:38:25.658Z,24.13
2022-09-24T12:41:32.565Z,25.60
2022-09-24T12:44:42.918Z,25.47
2022-09-24T12:47:50.360Z,22.67
2022-09-24T12:51:00.112Z,25.73
2022-09-24T12:54:08.650Z,25.00
2022-09-24T12:57:18.209Z,23.40
2022-09-24T13:00:41.135Z,24.93
2022-09-24T13:03:47.324Z,23.73
2022-09-24T13:06:50.629Z,25.57
2022-09-24T13:09:53.602Z,22.67
2022-09-24T13:13:00.760Z,21.70
2022-09-24T13:16:06.132Z,23.30
2022-09-24T13:19:31.104Z,27.87
2022-09-24T13:22:36.203Z,23.00
2022-09-24T13:25:39.516Z,23.67
2022-09-24T13:28:56.486Z,26.13
2022-09-24T13:32:04.041Z,22.30
2022-09-24T13:35:12.499Z,24.43
2022-09-24T13:38:21.482Z,24.67
2022-09-24T13:41:31.123Z,24.10
2022-09-24T13:44:39.360Z,23.93
2022-09-24T13:47:46.005Z,22.63
2022-09-24T13:50:53.240Z,22.87
2022-09-24T13:54:03.047Z,24.13
2022-09-24T13:57:12.841Z,21.93
2022-09-24T14:00:20.013Z,24.90
2022-09-24T14:03:27.114Z,24.73
2022-09-24T14:06:35.451Z,23.43
2022-09-24T14:09:38.876Z,24.37
2022-09-24T14:12:41.923Z,25.87
2022-09-24T14:15:58.000Z,24.83
2022-09-24T14:19:06.075Z,23.07
2022-09-24T14:22:14.180Z,27.87
2022-09-24T14:25:20.119Z,24.60
2022-09-24T14:28:24.040Z,24.47
2022-09-24T14:31:29.052Z,24.00
2022-09-24T14:34:37.609Z,22.23
2022-09-24T14:37:46.796Z,22.13
2022-09-24T14:40:52.834Z,23.07
2022-09-24T14:43:59.430Z,21.93
2022-09-24T14:47:03.716Z,22.27
2022-09-24T14:50:28.795Z,23.13
2022-09-24T14:53:34.611Z,22.23
2022-09-24T14:56:37.585Z,22.83
2022-09-24T14:59:41.687Z,21.47
2022-09-24T15:02:51.821Z,20.80
2022-09-24T15:06:04.234Z,22.77
2022-09-24T15:09:20.495Z,21.80
2022-09-24T15:12:30.802Z,20.47
2022-09-24T15:15:34.046Z,24.03
2022-09-24T15:18:38.339Z,22.60
2022-09-24T15:21:41.384Z,22.20
2022-09-24T15:24:44.361Z,21.17
2022-09-24T15:27:49.339Z,25.43
2022-09-24T15:30:52.318Z,23.07
2022-09-24T15:33:56.974Z,25.23
2022-09-24T15:37:00.891Z,24.40
2022-09-24T15:40:08.919Z,22.23
2022-09-24T15:43:19.970Z,23.77
2022-09-24T15:46:22.960Z,22.53
2022-09-24T15:49:27.349Z,24.73
2022-09-24T15:52:33.841Z,21.53
2022-09-24T15:55:37.648Z,23.03
2022-09-24T15:58:40.619Z,22.83
2022-09-24T16:01:43.892Z,22.37
2022-09-24T16:04:48.240Z,22.80
2022-09-24T16:07:51.173Z,24.07
2022-09-24T16:10:54.646Z,23.80
2022-09-24T16:13:57.963Z,24.40
2022-09-24T16:17:00.887Z,22.30
2022-09-24T16:20:05.878Z,25.57
2022-09-24T16:23:15.042Z,22.80
2022-09-24T16:26:18.008Z,24.47
2022-09-24T16:29:21.037Z,23.77
2022-09-24T16:32:23.984Z,24.23
2022-09-24T16:35:28.259Z,21.37
2022-09-24T16:38:34.174Z,22.80
2022-09-24T16:41:37.951Z,21.07
2022-09-24T16:44:40.936Z,20.80
2022-09-24T16:47:43.870Z,23.10
2022-09-24T16:50:49.682Z,23.13
2022-09-24T16:53:55.793Z,22.03
2022-09-24T16:56:58.983Z,22.07
2022-09-24T17:00:03.555Z,22.73
2022-09-24T17:03:06.520Z,21.23
2022-09-24T17:06:19.204Z,21.10
2022-09-24T17:09:39.923Z,22.23
2022-09-24T17:12:45.114Z,22.33
2022-09-24T17:15:48.152Z,21.87
2022-09-24T17:18:51.138Z,21.17
2022-09-24T17:21:55.516Z,22.07
2022-09-24T17:24:58.502Z,24.07
2022-09-24T17:28:02.114Z,22.13
2022-09-24T17:31:06.177Z,26.50
2022-09-24T17:34:12.334Z,22.90
2022-09-24T17:37:18.898Z,23.17
2022-09-24T17:40:24.336Z,26.97
2022-09-24T17:43:28.635Z,24.10
2022-09-24T17:46:32.739Z,23.83
2022-09-24T17:49:35.983Z,23.13
2022-09-24T17:52:40.295Z,26.57
2022-09-24T17:55:49.302Z,24.77
2022-09-24T17:58:53.177Z,29.27
2022-09-24T18:01:56.273Z,27.07
2022-09-24T18:04:59.314Z,27.03
2022-09-24T18:08:03.797Z,25.63
2022-09-24T18:11:09.066Z,24.73
2022-09-24T18:14:15.337Z,27.27
2022-09-24T18:17:18.280Z,25.97
2022-09-24T18:20:21.671Z,25.23
2022-09-24T18:23:26.094Z,27.50
2022-09-24T18:26:32.419Z,26.73
2022-09-24T18:29:37.313Z,27.60
2022-09-24T18:32:40.690Z,27.43
2022-09-24T18:35:43.840Z,24.93
2022-09-24T18:38:52.323Z,24.47
2022-09-24T18:41:55.289Z,27.13
2022-09-24T18:44:58.255Z,25.83
2022-09-24T18:48:01.411Z,26.77
2022-09-24T18:51:05.088Z,26.83
2022-09-24T18:54:13.452Z,25.87
2022-09-24T18:57:16.486Z,26.33
2022-09-24T19:00:45.620Z,27.57
2022-09-24T19:03:48.635Z,26.77
2022-09-24T19:06:51.824Z,26.90
2022-09-24T19:09:56.124Z,28.77
2022-09-24T19:12:59.096Z,24.77
2022-09-24T19:16:05.709Z,28.97
2022-09-24T19:19:08.782Z,28.53
2022-09-24T19:22:11.784Z,28.73
2022-09-24T19:25:16.294Z,26.67
2022-09-24T19:28:19.268Z,25.63
2022-09-24T19:31:24.955Z,27.40
2022-09-24T19:34:28.012Z,24.37
2022-09-24T19:37:32.340Z,26.17
2022-09-24T19:40:36.748Z,26.70
2022-09-24T19:43:40.175Z,23.87
2022-09-24T19:46:43.824Z,24.40
2022-09-24T19:49:46.890Z,23.00
2022-09-24T19:52:50.006Z,23.63
2022-09-24T19:55:54.358Z,22.47
2022-09-24T19:58:58.788Z,23.43
2022-09-24T20:02:01.832Z,22.80
2022-09-24T20:05:05.176Z,23.03
2022-09-24T20:08:11.067Z,22.47
2022-09-24T20:11:20.301Z,21.90
2022-09-24T20:14:23.403Z,21.37
2022-09-24T20:17:26.375Z,22.80
2022-09-24T20:20:29.420Z,20.07
2022-09-24T20:23:32.843Z,19.63
2022-09-24T20:26:54.808Z,19.33
2022-09-24T20:29:57.900Z,24.23
2022-09-24T20:33:00.850Z,18.97
2022-09-24T20:36:13.313Z,20.60
2022-09-24T20:39:19.242Z,20.53
2022-09-24T20:42:23.550Z,20.10
2022-09-24T20:45:26.570Z,20.80
2022-09-24T20:48:30.852Z,19.60
2022-09-24T20:51:34.508Z,21.13
2022-09-24T20:54:37.497Z,20.57
2022-09-24T20:57:42.314Z,19.80
2022-09-24T21:00:54.427Z,19.37
2022-09-24T21:03:58.198Z,18.40
2022-09-24T21:07:01.485Z,19.83
2022-09-24T21:10:04.683Z,19.43
2022-09-24T21:13:09.760Z,19.13
2022-09-24T21:16:13.280Z,20.07
2022-09-24T21:19:16.950Z,19.60
2022-09-24T21:22:20.343Z,19.77
2022-09-24T21:25:52.345Z,20.43
2022-09-24T21:28:50.487Z,22.90
2022-09-24T21:31:53.441Z,21.37
2022-09-24T21:34:56.425Z,19.93
2022-09-24T21:37:59.362Z,23.60
2022-09-24T21:41:03.559Z,21.70
2022-09-24T21:44:10.195Z,24.37
2022-09-24T21:47:13.155Z,25.47
2022-09-24T21:50:16.525Z,22.77
2022-09-24T21:53:19.508Z,22.30
2022-09-24T21:56:23.008Z,21.97
2022-09-24T21:59:56.512Z,20.03
2022-09-24T22:02:59.572Z,18.53
2022-09-24T22:06:04.222Z,18.47
2022-09-24T22:09:09.058Z,20.33
2022-09-24T22:12:12.022Z,20.13
2022-09-24T22:15:16.441Z,21.50
2022-09-24T22:18:19.444Z,20.43
2022-09-24T22:21:22.610Z,22.47
2022-09-24T22:24:26.751Z,20.27
2022-09-24T22:27:29.849Z,21.17
2022-09-24T22:30:34.235Z,24.33
2022-09-24T22:33:55.469Z,22.63
2022-09-24T22:36:58.479Z,21.90
2022-09-24T22:40:02.221Z,24.87
2022-09-24T22:43:05.215Z,23.70
2022-09-24T22:46:11.385Z,21.13
2022-09-24T22:49:14.606Z,22.00
2022-09-24T22:52:17.554Z,21.33
2022-09-24T22:55:20.503Z,22.07
2022-09-24T22:58:23.471Z,21.03
2022-09-24T23:01:30.216Z,20.03
2022-09-24T23:04:33.371Z,20.47
2022-09-24T23:07:36.522Z,18.63
2022-09-24T23:10:39.504Z,21.40
2022-09-24T23:13:44.616Z,20.13
2022-09-24T23:16:49.244Z,21.90
2022-09-24T23:19:52.739Z,19.43
2022-09-24T23:22:55.730Z,22.57
2022-09-24T23:26:04.940Z,20.23
2022-09-24T23:29:08.813Z,21.70
2022-09-24T23:32:13.878Z,22.13
2022-09-24T23:35:17.018Z,23.30
2022-09-24T23:38:19.994Z,21.83
2022-09-24T23:41:23.097Z,23.40
2022-09-24T23:44:26.242Z,22.73
2022-09-24T23:47:35.321Z,22.83
2022-09-24T23:50:39.210Z,26.73
2022-09-24T23:53:42.218Z,24.50
2022-09-24T23:56:45.195Z,28.83
2022-09-24T23:59:48.162Z,26.80
